SIA944 WSSS-WADD
Flight info
| Callsign | SIA944 |
|---|---|
| Flight time | 2h 5m |
| Altitude | 39000 |
| Route | IDBUD1B IDBUD T24 SURGA M635 UDONO |
| Aircraft | B78X/H-SDE1E2E3FGHIJ2J3J4J5M1RWXY/LB1D1 |
Departure
| Time | 2026-05-08 05:32 |
|---|---|
| Airport | Singapore Changi Airport (WSSS) |
Arrival
| Time | 2026-05-08 07:38 |
|---|---|
| Airport | Denpasar I Gusti Ngurah Rai International Airport (WADD) |
| Time | Latitude | Longitude | Altitude | Speed | Heading |
|---|---|---|---|---|---|
| 2026-05-08 04:57 | 1.35015 | 103.99048 | 38 ft | 0 kts | 83° |
| 2026-05-08 05:17 | 1.35014 | 103.99035 | 37 ft | 3 kts | 83° |
| 2026-05-08 05:17 | 1.35011 | 103.99015 | 39 ft | 3 kts | 83° |
| 2026-05-08 05:17 | 1.35008 | 103.98995 | 39 ft | 3 kts | 90° |
| 2026-05-08 05:17 | 1.35009 | 103.98979 | 39 ft | 3 kts | 116° |
| 2026-05-08 05:18 | 1.35015 | 103.98968 | 34 ft | 3 kts | 149° |
| 2026-05-08 05:18 | 1.35027 | 103.98961 | 37 ft | 1 kts | 172° |
| 2026-05-08 05:18 | 1.35029 | 103.98961 | 37 ft | 0 kts | 173° |
| 2026-05-08 05:18 | 1.35005 | 103.98964 | 38 ft | 3 kts | 173° |
| 2026-05-08 05:19 | 1.34992 | 103.98966 | 36 ft | 1 kts | 173° |
| 2026-05-08 05:19 | 1.34991 | 103.98966 | 36 ft | 0 kts | 173° |
| 2026-05-08 05:24 | 1.34985 | 103.98967 | 39 ft | 3 kts | 173° |
| 2026-05-08 05:24 | 1.34942 | 103.98972 | 39 ft | 7 kts | 171° |
| 2026-05-08 05:25 | 1.34902 | 103.98989 | 38 ft | 5 kts | 148° |
| 2026-05-08 05:25 | 1.34875 | 103.99016 | 38 ft | 8 kts | 128° |
| 2026-05-08 05:25 | 1.34851 | 103.99066 | 38 ft | 7 kts | 114° |
| 2026-05-08 05:25 | 1.34846 | 103.99107 | 39 ft | 4 kts | 77° |
| 2026-05-08 05:26 | 1.34860 | 103.99128 | 39 ft | 5 kts | 51° |
| 2026-05-08 05:26 | 1.34912 | 103.99159 | 39 ft | 13 kts | 24° |
| 2026-05-08 05:26 | 1.34999 | 103.99195 | 38 ft | 13 kts | 22° |
| 2026-05-08 05:26 | 1.35083 | 103.99230 | 38 ft | 13 kts | 22° |
| 2026-05-08 05:27 | 1.35166 | 103.99265 | 38 ft | 14 kts | 23° |
| 2026-05-08 05:27 | 1.35268 | 103.99308 | 37 ft | 16 kts | 22° |
| 2026-05-08 05:27 | 1.35368 | 103.99349 | 39 ft | 15 kts | 22° |
| 2026-05-08 05:27 | 1.35463 | 103.99390 | 39 ft | 15 kts | 22° |
| 2026-05-08 05:28 | 1.35556 | 103.99428 | 39 ft | 14 kts | 23° |
| 2026-05-08 05:28 | 1.35647 | 103.99467 | 39 ft | 14 kts | 22° |
| 2026-05-08 05:28 | 1.35739 | 103.99504 | 38 ft | 14 kts | 22° |
| 2026-05-08 05:28 | 1.35833 | 103.99544 | 38 ft | 15 kts | 23° |
| 2026-05-08 05:29 | 1.35929 | 103.99585 | 38 ft | 15 kts | 22° |
| 2026-05-08 05:29 | 1.36028 | 103.99626 | 38 ft | 16 kts | 22° |
| 2026-05-08 05:29 | 1.36127 | 103.99667 | 38 ft | 14 kts | 22° |
| 2026-05-08 05:29 | 1.36209 | 103.99701 | 38 ft | 9 kts | 23° |
| 2026-05-08 05:30 | 1.36240 | 103.99741 | 38 ft | 6 kts | 85° |
| 2026-05-08 05:30 | 1.36229 | 103.99782 | 37 ft | 7 kts | 109° |
| 2026-05-08 05:30 | 1.36208 | 103.99832 | 36 ft | 9 kts | 112° |
| 2026-05-08 05:30 | 1.36180 | 103.99882 | 36 ft | 4 kts | 138° |
| 2026-05-08 05:31 | 1.36171 | 103.99883 | 36 ft | 1 kts | 170° |
| 2026-05-08 05:31 | 1.36155 | 103.99880 | 36 ft | 6 kts | 192° |
| 2026-05-08 05:31 | 1.36139 | 103.99874 | 35 ft | 0 kts | 201° |
| 2026-05-08 05:31 | 1.36126 | 103.99869 | 36 ft | 11 kts | 202° |
| 2026-05-08 05:32 | 1.35872 | 103.99762 | 38 ft | 70 kts | 203° |
| 2026-05-08 05:32 | 1.35230 | 103.99491 | 40 ft | 128 kts | 202° |
| 2026-05-08 05:32 | 1.34253 | 103.99078 | 104 ft | 170 kts | 206° |
| 2026-05-08 05:32 | 1.33168 | 103.98580 | 822 ft | 169 kts | 205° |
| 2026-05-08 05:33 | 1.32080 | 103.98118 | 1518 ft | 181 kts | 201° |
| 2026-05-08 05:33 | 1.30860 | 103.97637 | 2217 ft | 189 kts | 201° |
| 2026-05-08 05:33 | 1.29568 | 103.97119 | 2949 ft | 213 kts | 203° |
| 2026-05-08 05:33 | 1.28156 | 103.96500 | 3836 ft | 232 kts | 204° |
| 2026-05-08 05:34 | 1.26613 | 103.95837 | 4762 ft | 251 kts | 203° |
| 2026-05-08 05:34 | 1.24925 | 103.95131 | 5553 ft | 273 kts | 203° |
| 2026-05-08 05:34 | 1.23114 | 103.94568 | 5927 ft | 278 kts | 184° |
| 2026-05-08 05:34 | 1.21188 | 103.94791 | 5965 ft | 277 kts | 167° |
| 2026-05-08 05:35 | 1.19308 | 103.95259 | 5965 ft | 279 kts | 165° |
| 2026-05-08 05:35 | 1.17426 | 103.95761 | 6027 ft | 281 kts | 166° |
| 2026-05-08 05:35 | 1.15535 | 103.96231 | 6549 ft | 283 kts | 167° |
| 2026-05-08 05:35 | 1.13633 | 103.96692 | 7856 ft | 282 kts | 167° |
| 2026-05-08 05:36 | 1.11711 | 103.97165 | 9164 ft | 287 kts | 165° |
| 2026-05-08 05:36 | 1.09935 | 103.98065 | 10331 ft | 293 kts | 142° |
| 2026-05-08 05:36 | 1.08262 | 103.99358 | 11081 ft | 313 kts | 142° |
| 2026-05-08 05:36 | 1.06473 | 104.00721 | 11778 ft | 335 kts | 142° |
| 2026-05-08 05:37 | 1.04565 | 104.02189 | 12415 ft | 355 kts | 141° |
| 2026-05-08 05:37 | 1.02816 | 104.03945 | 13401 ft | 361 kts | 123° |
| 2026-05-08 05:37 | 1.01676 | 104.06199 | 14350 ft | 366 kts | 113° |
| 2026-05-08 05:37 | 1.00674 | 104.08558 | 15317 ft | 372 kts | 112° |
| 2026-05-08 05:38 | 0.99685 | 104.10965 | 16276 ft | 377 kts | 112° |
| 2026-05-08 05:38 | 0.98661 | 104.13394 | 17218 ft | 382 kts | 112° |
| 2026-05-08 05:38 | 0.97611 | 104.15851 | 18124 ft | 387 kts | 112° |
| 2026-05-08 05:38 | 0.96557 | 104.18349 | 18896 ft | 392 kts | 112° |
| 2026-05-08 05:39 | 0.95498 | 104.20876 | 19716 ft | 396 kts | 112° |
| 2026-05-08 05:39 | 0.94296 | 104.23370 | 20490 ft | 401 kts | 121° |
| 2026-05-08 05:39 | 0.92795 | 104.25746 | 21209 ft | 406 kts | 121° |
| 2026-05-08 05:39 | 0.91299 | 104.28164 | 21959 ft | 411 kts | 121° |
| 2026-05-08 05:40 | 0.89790 | 104.30603 | 22703 ft | 415 kts | 121° |
| 2026-05-08 05:40 | 0.88252 | 104.33068 | 23413 ft | 420 kts | 121° |
| 2026-05-08 05:40 | 0.86699 | 104.35555 | 24025 ft | 424 kts | 121° |
| 2026-05-08 05:40 | 0.85130 | 104.38076 | 24644 ft | 428 kts | 121° |
| 2026-05-08 05:41 | 0.83553 | 104.40613 | 25200 ft | 432 kts | 121° |
| 2026-05-08 05:41 | 0.81961 | 104.43126 | 25759 ft | 436 kts | 124° |
| 2026-05-08 05:41 | 0.80179 | 104.45599 | 26293 ft | 440 kts | 124° |
| 2026-05-08 05:41 | 0.78408 | 104.48112 | 26843 ft | 444 kts | 123° |
| 2026-05-08 05:42 | 0.76624 | 104.50646 | 27379 ft | 447 kts | 124° |
| 2026-05-08 05:42 | 0.74789 | 104.53167 | 27933 ft | 452 kts | 128° |
| 2026-05-08 05:42 | 0.72547 | 104.55394 | 28464 ft | 457 kts | 140° |
| 2026-05-08 05:42 | 0.69878 | 104.57169 | 28979 ft | 464 kts | 151° |
| 2026-05-08 05:43 | 0.66876 | 104.58397 | 29485 ft | 470 kts | 161° |
| 2026-05-08 05:43 | 0.63734 | 104.59353 | 29930 ft | 475 kts | 161° |
| 2026-05-08 05:43 | 0.60553 | 104.60303 | 30329 ft | 479 kts | 161° |
| 2026-05-08 05:43 | 0.57347 | 104.61243 | 30719 ft | 482 kts | 161° |
| 2026-05-08 05:44 | 0.54118 | 104.62199 | 31098 ft | 485 kts | 161° |
| 2026-05-08 05:44 | 0.50975 | 104.63421 | 31487 ft | 485 kts | 150° |
| 2026-05-08 05:44 | 0.48125 | 104.65209 | 31864 ft | 484 kts | 139° |
| 2026-05-08 05:44 | 0.45659 | 104.67503 | 32249 ft | 484 kts | 129° |
| 2026-05-08 05:45 | 0.43689 | 104.70177 | 32605 ft | 484 kts | 118° |
| 2026-05-08 05:45 | 0.41975 | 104.73088 | 32924 ft | 487 kts | 119° |
| 2026-05-08 05:45 | 0.40265 | 104.76022 | 33238 ft | 491 kts | 118° |
| 2026-05-08 05:45 | 0.38567 | 104.78990 | 33566 ft | 494 kts | 118° |
| 2026-05-08 05:46 | 0.36850 | 104.81977 | 33876 ft | 496 kts | 118° |
| 2026-05-08 05:46 | 0.35108 | 104.84977 | 34176 ft | 498 kts | 119° |
| 2026-05-08 05:46 | 0.33371 | 104.87968 | 34598 ft | 497 kts | 118° |
| 2026-05-08 05:46 | 0.31646 | 104.90959 | 35006 ft | 497 kts | 118° |
| 2026-05-08 05:47 | 0.29922 | 104.93950 | 35406 ft | 496 kts | 118° |
| 2026-05-08 05:47 | 0.28195 | 104.96935 | 35802 ft | 496 kts | 119° |
| 2026-05-08 05:47 | 0.26472 | 104.99911 | 36197 ft | 495 kts | 118° |
| 2026-05-08 05:47 | 0.24751 | 105.02888 | 36626 ft | 494 kts | 118° |
| 2026-05-08 05:48 | 0.23037 | 105.05856 | 37030 ft | 493 kts | 119° |
| 2026-05-08 05:48 | 0.21319 | 105.08826 | 37444 ft | 493 kts | 119° |
| 2026-05-08 05:48 | 0.19607 | 105.11785 | 37832 ft | 492 kts | 119° |
| 2026-05-08 05:48 | 0.17895 | 105.14746 | 38224 ft | 492 kts | 119° |
| 2026-05-08 05:49 | 0.16188 | 105.17698 | 38593 ft | 491 kts | 119° |
| 2026-05-08 05:49 | 0.14480 | 105.20652 | 38829 ft | 493 kts | 119° |
| 2026-05-08 05:49 | 0.12778 | 105.23595 | 38856 ft | 492 kts | 119° |
| 2026-05-08 05:50 | 0.09377 | 105.29476 | 38857 ft | 489 kts | 119° |
| 2026-05-08 05:50 | 0.05971 | 105.35366 | 38857 ft | 490 kts | 119° |
| 2026-05-08 05:51 | 0.02560 | 105.41265 | 38859 ft | 490 kts | 119° |
| 2026-05-08 05:51 | -0.00276 | 105.46169 | 38856 ft | 489 kts | 119° |
| 2026-05-08 05:52 | -0.03683 | 105.52060 | 38853 ft | 489 kts | 119° |
| 2026-05-08 05:52 | -0.07082 | 105.57937 | 38856 ft | 488 kts | 119° |
| 2026-05-08 05:53 | -0.11026 | 105.64757 | 38859 ft | 487 kts | 119° |
| 2026-05-08 05:53 | -0.13845 | 105.69632 | 38859 ft | 487 kts | 119° |
| 2026-05-08 05:54 | -0.17239 | 105.75501 | 38859 ft | 487 kts | 119° |
| 2026-05-08 05:54 | -0.20629 | 105.81363 | 38857 ft | 487 kts | 119° |
| 2026-05-08 05:55 | -0.24017 | 105.87222 | 38859 ft | 487 kts | 119° |
| 2026-05-08 05:55 | -0.27404 | 105.93079 | 38858 ft | 487 kts | 119° |
| 2026-05-08 05:56 | -0.30792 | 105.98938 | 38857 ft | 486 kts | 119° |
| 2026-05-08 05:56 | -0.34174 | 106.04786 | 38858 ft | 486 kts | 119° |
| 2026-05-08 05:57 | -0.37544 | 106.10615 | 38860 ft | 487 kts | 119° |
| 2026-05-08 05:57 | -0.40938 | 106.16486 | 38859 ft | 487 kts | 119° |
| 2026-05-08 05:58 | -0.44328 | 106.22348 | 38855 ft | 487 kts | 119° |
| 2026-05-08 05:58 | -0.47718 | 106.28211 | 38858 ft | 487 kts | 119° |
| 2026-05-08 05:59 | -0.51109 | 106.34075 | 38857 ft | 487 kts | 119° |
| 2026-05-08 05:59 | -0.54496 | 106.39935 | 38856 ft | 487 kts | 119° |
| 2026-05-08 06:00 | -0.57885 | 106.45795 | 38849 ft | 487 kts | 119° |
| 2026-05-08 06:00 | -0.61303 | 106.51639 | 38852 ft | 487 kts | 125° |
| 2026-05-08 06:01 | -0.65674 | 106.56833 | 38862 ft | 489 kts | 131° |
| 2026-05-08 06:01 | -0.70196 | 106.61884 | 38860 ft | 488 kts | 131° |
| 2026-05-08 06:02 | -0.74685 | 106.66970 | 38858 ft | 488 kts | 131° |
| 2026-05-08 06:02 | -0.79161 | 106.72002 | 38860 ft | 487 kts | 131° |
| 2026-05-08 06:03 | -0.83659 | 106.77079 | 38860 ft | 487 kts | 131° |
| 2026-05-08 06:03 | -0.88150 | 106.82139 | 38859 ft | 486 kts | 131° |
| 2026-05-08 06:04 | -0.92639 | 106.87201 | 38859 ft | 485 kts | 131° |
| 2026-05-08 06:04 | -0.97112 | 106.92243 | 38856 ft | 485 kts | 131° |
| 2026-05-08 06:05 | -1.01565 | 106.97264 | 38857 ft | 485 kts | 131° |
| 2026-05-08 06:05 | -1.06045 | 107.02315 | 38858 ft | 486 kts | 131° |
| 2026-05-08 06:06 | -1.10535 | 107.07378 | 38857 ft | 486 kts | 131° |
| 2026-05-08 06:06 | -1.15043 | 107.12462 | 38857 ft | 488 kts | 131° |
| 2026-05-08 06:07 | -1.19546 | 107.17540 | 38857 ft | 489 kts | 131° |
| 2026-05-08 06:07 | -1.24066 | 107.22638 | 38855 ft | 490 kts | 131° |
| 2026-05-08 06:08 | -1.28597 | 107.27747 | 38854 ft | 490 kts | 131° |
| 2026-05-08 06:08 | -1.33091 | 107.32816 | 38853 ft | 490 kts | 131° |
| 2026-05-08 06:09 | -1.37611 | 107.37916 | 38851 ft | 490 kts | 130° |
| 2026-05-08 06:09 | -1.42053 | 107.43096 | 38849 ft | 490 kts | 130° |
| 2026-05-08 06:10 | -1.46510 | 107.48247 | 38854 ft | 490 kts | 130° |
| 2026-05-08 06:10 | -1.50959 | 107.53405 | 38847 ft | 490 kts | 130° |
| 2026-05-08 06:11 | -1.55414 | 107.58568 | 38850 ft | 489 kts | 130° |
| 2026-05-08 06:11 | -1.59857 | 107.63714 | 38846 ft | 489 kts | 130° |
| 2026-05-08 06:12 | -1.64299 | 107.68865 | 38851 ft | 489 kts | 130° |
| 2026-05-08 06:12 | -1.68718 | 107.73984 | 38851 ft | 489 kts | 130° |
| 2026-05-08 06:13 | -1.73163 | 107.79138 | 38847 ft | 489 kts | 130° |
| 2026-05-08 06:13 | -1.77606 | 107.84287 | 38848 ft | 490 kts | 130° |
| 2026-05-08 06:14 | -1.82055 | 107.89445 | 38846 ft | 490 kts | 130° |
| 2026-05-08 06:14 | -1.86506 | 107.94605 | 38848 ft | 490 kts | 130° |
| 2026-05-08 06:15 | -1.90958 | 107.99768 | 38849 ft | 491 kts | 130° |
| 2026-05-08 06:15 | -1.95426 | 108.04948 | 38851 ft | 492 kts | 130° |
| 2026-05-08 06:16 | -1.99898 | 108.10134 | 38851 ft | 493 kts | 130° |
| 2026-05-08 06:16 | -2.04383 | 108.15336 | 38847 ft | 494 kts | 130° |
| 2026-05-08 06:17 | -2.11099 | 108.23120 | 38849 ft | 494 kts | 130° |
| 2026-05-08 06:17 | -2.15586 | 108.28321 | 38849 ft | 494 kts | 130° |
| 2026-05-08 06:18 | -2.20072 | 108.33520 | 38842 ft | 493 kts | 130° |
| 2026-05-08 06:18 | -2.24557 | 108.38720 | 38839 ft | 493 kts | 130° |
| 2026-05-08 06:19 | -2.29037 | 108.43914 | 38843 ft | 493 kts | 130° |
| 2026-05-08 06:19 | -2.33510 | 108.49101 | 38846 ft | 492 kts | 130° |
| 2026-05-08 06:20 | -2.37960 | 108.54261 | 38846 ft | 492 kts | 130° |
| 2026-05-08 06:20 | -2.42433 | 108.59447 | 38845 ft | 493 kts | 130° |
| 2026-05-08 06:21 | -2.46909 | 108.64641 | 38844 ft | 493 kts | 130° |
| 2026-05-08 06:21 | -2.51393 | 108.69834 | 38840 ft | 493 kts | 130° |
| 2026-05-08 06:22 | -2.55897 | 108.75034 | 38844 ft | 494 kts | 130° |
| 2026-05-08 06:22 | -2.60388 | 108.80228 | 38842 ft | 494 kts | 130° |
| 2026-05-08 06:23 | -2.64879 | 108.85419 | 38842 ft | 494 kts | 130° |
| 2026-05-08 06:23 | -2.69373 | 108.90616 | 38838 ft | 493 kts | 130° |
| 2026-05-08 06:24 | -2.73861 | 108.95803 | 38844 ft | 493 kts | 129° |
| 2026-05-08 06:24 | -2.78350 | 109.00997 | 38839 ft | 492 kts | 129° |
| 2026-05-08 06:25 | -2.82804 | 109.06148 | 38842 ft | 492 kts | 129° |
| 2026-05-08 06:25 | -2.87283 | 109.11330 | 38841 ft | 492 kts | 129° |
| 2026-05-08 06:26 | -2.91748 | 109.16501 | 38840 ft | 491 kts | 129° |
| 2026-05-08 06:26 | -2.96206 | 109.21689 | 38837 ft | 491 kts | 129° |
| 2026-05-08 06:27 | -3.00667 | 109.26866 | 38839 ft | 490 kts | 129° |
| 2026-05-08 06:27 | -3.05114 | 109.32036 | 38837 ft | 490 kts | 129° |
| 2026-05-08 06:28 | -3.09562 | 109.37204 | 38836 ft | 490 kts | 129° |
| 2026-05-08 06:28 | -3.14010 | 109.42374 | 38839 ft | 490 kts | 129° |
| 2026-05-08 06:29 | -3.18457 | 109.47543 | 38835 ft | 490 kts | 129° |
| 2026-05-08 06:29 | -3.22898 | 109.52707 | 38837 ft | 489 kts | 129° |
| 2026-05-08 06:30 | -3.27337 | 109.57868 | 38838 ft | 489 kts | 129° |
| 2026-05-08 06:30 | -3.31776 | 109.63032 | 38839 ft | 489 kts | 129° |
| 2026-05-08 06:31 | -3.36218 | 109.68198 | 38835 ft | 489 kts | 129° |
| 2026-05-08 06:31 | -3.40652 | 109.73355 | 38836 ft | 489 kts | 129° |
| 2026-05-08 06:32 | -3.45062 | 109.78486 | 38835 ft | 489 kts | 129° |
| 2026-05-08 06:32 | -3.49496 | 109.83645 | 38835 ft | 489 kts | 129° |
| 2026-05-08 06:33 | -3.53927 | 109.88804 | 38835 ft | 489 kts | 129° |
| 2026-05-08 06:33 | -3.58363 | 109.93968 | 38836 ft | 488 kts | 129° |
| 2026-05-08 06:34 | -3.62798 | 109.99132 | 38835 ft | 489 kts | 129° |
| 2026-05-08 06:34 | -3.67233 | 110.04295 | 38833 ft | 489 kts | 129° |
| 2026-05-08 06:35 | -3.71659 | 110.09450 | 38833 ft | 489 kts | 129° |
| 2026-05-08 06:35 | -3.76091 | 110.14611 | 38832 ft | 489 kts | 129° |
| 2026-05-08 06:36 | -3.80528 | 110.19781 | 38829 ft | 489 kts | 129° |
| 2026-05-08 06:36 | -3.84928 | 110.24908 | 38829 ft | 489 kts | 129° |
| 2026-05-08 06:37 | -3.89361 | 110.30073 | 38830 ft | 488 kts | 129° |
| 2026-05-08 06:37 | -3.93788 | 110.35235 | 38831 ft | 488 kts | 129° |
| 2026-05-08 06:38 | -3.98078 | 110.40480 | 38827 ft | 487 kts | 126° |
| 2026-05-08 06:38 | -4.01559 | 110.44948 | 38832 ft | 488 kts | 126° |
| 2026-05-08 06:39 | -4.05710 | 110.50329 | 38831 ft | 489 kts | 126° |
| 2026-05-08 06:39 | -4.09862 | 110.55708 | 38831 ft | 488 kts | 126° |
| 2026-05-08 06:40 | -4.14021 | 110.61095 | 38828 ft | 489 kts | 126° |
| 2026-05-08 06:40 | -4.18188 | 110.66496 | 38832 ft | 489 kts | 126° |
| 2026-05-08 06:41 | -4.22332 | 110.71865 | 38832 ft | 490 kts | 126° |
| 2026-05-08 06:41 | -4.26508 | 110.77280 | 38832 ft | 491 kts | 126° |
| 2026-05-08 06:42 | -4.30687 | 110.82697 | 38832 ft | 492 kts | 126° |
| 2026-05-08 06:42 | -4.34883 | 110.88140 | 38833 ft | 493 kts | 126° |
| 2026-05-08 06:43 | -4.39080 | 110.93583 | 38828 ft | 494 kts | 126° |
| 2026-05-08 06:43 | -4.43267 | 110.99013 | 38813 ft | 495 kts | 126° |
| 2026-05-08 06:44 | -4.47475 | 111.04476 | 38814 ft | 495 kts | 126° |
| 2026-05-08 06:44 | -4.51684 | 111.09935 | 38816 ft | 495 kts | 126° |
| 2026-05-08 06:45 | -4.55900 | 111.15411 | 38816 ft | 496 kts | 126° |
| 2026-05-08 06:45 | -4.60110 | 111.20878 | 38815 ft | 496 kts | 126° |
| 2026-05-08 06:46 | -4.64334 | 111.26346 | 38814 ft | 496 kts | 126° |
| 2026-05-08 06:46 | -4.68577 | 111.31809 | 38817 ft | 497 kts | 126° |
| 2026-05-08 06:47 | -4.72808 | 111.37276 | 38820 ft | 496 kts | 126° |
| 2026-05-08 06:47 | -4.77044 | 111.42738 | 38819 ft | 496 kts | 126° |
| 2026-05-08 06:48 | -4.81284 | 111.48218 | 38818 ft | 497 kts | 126° |
| 2026-05-08 06:48 | -4.85518 | 111.53684 | 38817 ft | 497 kts | 126° |
| 2026-05-08 06:49 | -4.89755 | 111.59156 | 38814 ft | 497 kts | 127° |
| 2026-05-08 06:49 | -4.93976 | 111.64609 | 38814 ft | 497 kts | 127° |
| 2026-05-08 06:50 | -4.98223 | 111.70097 | 38814 ft | 498 kts | 127° |
| 2026-05-08 06:50 | -5.02470 | 111.75586 | 38810 ft | 499 kts | 127° |
| 2026-05-08 06:51 | -5.06729 | 111.81093 | 38811 ft | 499 kts | 127° |
| 2026-05-08 06:51 | -5.10988 | 111.86601 | 38814 ft | 500 kts | 127° |
| 2026-05-08 06:52 | -5.15254 | 111.92119 | 38814 ft | 500 kts | 128° |
| 2026-05-08 06:52 | -5.19489 | 111.97598 | 38815 ft | 500 kts | 128° |
| 2026-05-08 06:53 | -5.23759 | 112.03124 | 38811 ft | 500 kts | 128° |
| 2026-05-08 06:53 | -5.28025 | 112.08646 | 38813 ft | 501 kts | 128° |
| 2026-05-08 06:54 | -5.32299 | 112.14179 | 38812 ft | 502 kts | 128° |
| 2026-05-08 06:54 | -5.36576 | 112.19719 | 38809 ft | 502 kts | 128° |
| 2026-05-08 06:55 | -5.40854 | 112.25261 | 38808 ft | 502 kts | 128° |
| 2026-05-08 06:55 | -5.45127 | 112.30799 | 38808 ft | 503 kts | 128° |
| 2026-05-08 06:56 | -5.49415 | 112.36356 | 38806 ft | 503 kts | 128° |
| 2026-05-08 06:56 | -5.53676 | 112.41880 | 38810 ft | 503 kts | 128° |
| 2026-05-08 06:57 | -5.57972 | 112.47450 | 38815 ft | 504 kts | 128° |
| 2026-05-08 06:57 | -5.62260 | 112.53013 | 38808 ft | 504 kts | 128° |
| 2026-05-08 06:58 | -5.66547 | 112.58575 | 38808 ft | 504 kts | 128° |
| 2026-05-08 06:58 | -5.70833 | 112.64137 | 38811 ft | 503 kts | 128° |
| 2026-05-08 06:59 | -5.75120 | 112.69704 | 38809 ft | 503 kts | 128° |
| 2026-05-08 06:59 | -5.79401 | 112.75262 | 38807 ft | 503 kts | 129° |
| 2026-05-08 07:00 | -5.83685 | 112.80826 | 38801 ft | 503 kts | 129° |
| 2026-05-08 07:00 | -5.87969 | 112.86393 | 38798 ft | 503 kts | 129° |
| 2026-05-08 07:01 | -5.92249 | 112.91955 | 38801 ft | 503 kts | 129° |
| 2026-05-08 07:01 | -5.96531 | 112.97522 | 38804 ft | 503 kts | 129° |
| 2026-05-08 07:02 | -6.00806 | 113.03080 | 38810 ft | 503 kts | 129° |
| 2026-05-08 07:02 | -6.05056 | 113.08610 | 38806 ft | 502 kts | 129° |
| 2026-05-08 07:03 | -6.09323 | 113.14161 | 38807 ft | 502 kts | 129° |
| 2026-05-08 07:03 | -6.13595 | 113.19721 | 38806 ft | 502 kts | 129° |
| 2026-05-08 07:04 | -6.17863 | 113.25279 | 38807 ft | 502 kts | 129° |
| 2026-05-08 07:04 | -6.22131 | 113.30836 | 38808 ft | 502 kts | 129° |
| 2026-05-08 07:05 | -6.26873 | 113.35927 | 38830 ft | 499 kts | 146° |
| 2026-05-08 07:05 | -6.32491 | 113.40005 | 38813 ft | 498 kts | 146° |
| 2026-05-08 07:06 | -6.38134 | 113.44060 | 38806 ft | 498 kts | 146° |
| 2026-05-08 07:06 | -6.43720 | 113.48102 | 38809 ft | 498 kts | 146° |
| 2026-05-08 07:07 | -6.49343 | 113.52157 | 38802 ft | 498 kts | 146° |
| 2026-05-08 07:07 | -6.54965 | 113.56220 | 38808 ft | 497 kts | 146° |
| 2026-05-08 07:08 | -6.60583 | 113.60278 | 38808 ft | 497 kts | 146° |
| 2026-05-08 07:08 | -6.66194 | 113.64334 | 38810 ft | 497 kts | 146° |
| 2026-05-08 07:09 | -6.71820 | 113.68400 | 38811 ft | 497 kts | 146° |
| 2026-05-08 07:09 | -6.77434 | 113.72459 | 38811 ft | 497 kts | 146° |
| 2026-05-08 07:10 | -6.83045 | 113.76517 | 38813 ft | 497 kts | 146° |
| 2026-05-08 07:10 | -6.88652 | 113.80574 | 38692 ft | 494 kts | 146° |
| 2026-05-08 07:11 | -6.91437 | 113.82589 | 38127 ft | 494 kts | 146° |
| 2026-05-08 07:11 | -6.94234 | 113.84614 | 37357 ft | 496 kts | 146° |
| 2026-05-08 07:11 | -6.97047 | 113.86649 | 36563 ft | 499 kts | 145° |
| 2026-05-08 07:11 | -6.99803 | 113.88702 | 35906 ft | 500 kts | 139° |
| 2026-05-08 07:12 | -7.02238 | 113.91166 | 35503 ft | 494 kts | 132° |
| 2026-05-08 07:12 | -7.04513 | 113.93739 | 35027 ft | 490 kts | 132° |
| 2026-05-08 07:12 | -7.06769 | 113.96299 | 34577 ft | 487 kts | 131° |
| 2026-05-08 07:12 | -7.08995 | 113.98844 | 34117 ft | 484 kts | 131° |
| 2026-05-08 07:13 | -7.11217 | 114.01383 | 33663 ft | 481 kts | 131° |
| 2026-05-08 07:13 | -7.13425 | 114.03895 | 33139 ft | 477 kts | 131° |
| 2026-05-08 07:13 | -7.15621 | 114.06393 | 32638 ft | 474 kts | 131° |
| 2026-05-08 07:13 | -7.17795 | 114.08873 | 32138 ft | 471 kts | 131° |
| 2026-05-08 07:14 | -7.19956 | 114.11338 | 31681 ft | 468 kts | 131° |
| 2026-05-08 07:14 | -7.22104 | 114.13786 | 31208 ft | 464 kts | 131° |
| 2026-05-08 07:14 | -7.24230 | 114.16209 | 30717 ft | 459 kts | 131° |
| 2026-05-08 07:14 | -7.26331 | 114.18605 | 29958 ft | 454 kts | 131° |
| 2026-05-08 07:15 | -7.28414 | 114.20982 | 29113 ft | 450 kts | 132° |
| 2026-05-08 07:15 | -7.30473 | 114.23331 | 28302 ft | 444 kts | 132° |
| 2026-05-08 07:15 | -7.32479 | 114.25620 | 27535 ft | 439 kts | 132° |
| 2026-05-08 07:15 | -7.34510 | 114.27936 | 26771 ft | 433 kts | 132° |
| 2026-05-08 07:16 | -7.36473 | 114.30177 | 25719 ft | 423 kts | 132° |
| 2026-05-08 07:16 | -7.38382 | 114.32357 | 24688 ft | 417 kts | 132° |
| 2026-05-08 07:16 | -7.40274 | 114.34515 | 24143 ft | 401 kts | 133° |
| 2026-05-08 07:16 | -7.42129 | 114.36629 | 23694 ft | 405 kts | 134° |
| 2026-05-08 07:17 | -7.44301 | 114.38450 | 23183 ft | 408 kts | 152° |
| 2026-05-08 07:17 | -7.46878 | 114.39565 | 22841 ft | 399 kts | 167° |
| 2026-05-08 07:17 | -7.49592 | 114.39939 | 22648 ft | 392 kts | 182° |
| 2026-05-08 07:17 | -7.52282 | 114.39681 | 22161 ft | 387 kts | 188° |
| 2026-05-08 07:18 | -7.54953 | 114.39323 | 21729 ft | 383 kts | 189° |
| 2026-05-08 07:18 | -7.57591 | 114.38943 | 21432 ft | 385 kts | 189° |
| 2026-05-08 07:18 | -7.60249 | 114.38564 | 21121 ft | 385 kts | 188° |
| 2026-05-08 07:18 | -7.61144 | 114.38440 | 21022 ft | 383 kts | 188° |
| 2026-05-08 07:19 | -7.65655 | 114.37819 | 20489 ft | 379 kts | 188° |
| 2026-05-08 07:19 | -7.68261 | 114.37454 | 20183 ft | 377 kts | 188° |
| 2026-05-08 07:19 | -7.69988 | 114.37288 | 19991 ft | 376 kts | 180° |
| 2026-05-08 07:19 | -7.72565 | 114.37658 | 19717 ft | 376 kts | 163° |
| 2026-05-08 07:20 | -7.75788 | 114.38956 | 19303 ft | 375 kts | 158° |
| 2026-05-08 07:20 | -7.78173 | 114.39997 | 19002 ft | 373 kts | 158° |
| 2026-05-08 07:20 | -7.79765 | 114.40701 | 18787 ft | 371 kts | 158° |
| 2026-05-08 07:20 | -7.82128 | 114.41733 | 18490 ft | 368 kts | 158° |
| 2026-05-08 07:21 | -7.84454 | 114.42737 | 18205 ft | 366 kts | 158° |
| 2026-05-08 07:21 | -7.86792 | 114.43749 | 17880 ft | 364 kts | 158° |
| 2026-05-08 07:21 | -7.89115 | 114.44761 | 17563 ft | 363 kts | 158° |
| 2026-05-08 07:21 | -7.91423 | 114.45766 | 17279 ft | 361 kts | 158° |
| 2026-05-08 07:22 | -7.93727 | 114.46767 | 16991 ft | 360 kts | 158° |
| 2026-05-08 07:22 | -7.96018 | 114.47761 | 16626 ft | 360 kts | 158° |
| 2026-05-08 07:22 | -7.98306 | 114.48756 | 16175 ft | 357 kts | 158° |
| 2026-05-08 07:22 | -8.00581 | 114.49745 | 15810 ft | 354 kts | 158° |
| 2026-05-08 07:23 | -8.02842 | 114.50728 | 15451 ft | 353 kts | 158° |
| 2026-05-08 07:23 | -8.05085 | 114.51702 | 15119 ft | 351 kts | 158° |
| 2026-05-08 07:23 | -8.07325 | 114.52677 | 14776 ft | 349 kts | 158° |
| 2026-05-08 07:23 | -8.09552 | 114.53646 | 14441 ft | 348 kts | 158° |
| 2026-05-08 07:24 | -8.11769 | 114.54609 | 14095 ft | 347 kts | 158° |
| 2026-05-08 07:24 | -8.13980 | 114.55572 | 13761 ft | 345 kts | 158° |
| 2026-05-08 07:24 | -8.16183 | 114.56530 | 13394 ft | 344 kts | 158° |
| 2026-05-08 07:24 | -8.18378 | 114.57484 | 13056 ft | 342 kts | 158° |
| 2026-05-08 07:25 | -8.20560 | 114.58432 | 12718 ft | 342 kts | 158° |
| 2026-05-08 07:25 | -8.22711 | 114.59369 | 12393 ft | 340 kts | 158° |
| 2026-05-08 07:25 | -8.27041 | 114.61255 | 11725 ft | 337 kts | 157° |
| 2026-05-08 07:26 | -8.29194 | 114.62189 | 11394 ft | 336 kts | 157° |
| 2026-05-08 07:26 | -8.31340 | 114.63120 | 11068 ft | 335 kts | 157° |
| 2026-05-08 07:26 | -8.33458 | 114.64042 | 10738 ft | 327 kts | 157° |
| 2026-05-08 07:26 | -8.35516 | 114.64937 | 10431 ft | 319 kts | 157° |
| 2026-05-08 07:27 | -8.37529 | 114.65811 | 10119 ft | 311 kts | 157° |
| 2026-05-08 07:27 | -8.39489 | 114.66663 | 9816 ft | 303 kts | 156° |
| 2026-05-08 07:27 | -8.41402 | 114.67495 | 9498 ft | 295 kts | 156° |
| 2026-05-08 07:27 | -8.43240 | 114.68294 | 9206 ft | 283 kts | 156° |
| 2026-05-08 07:28 | -8.45048 | 114.69081 | 9030 ft | 281 kts | 156° |
| 2026-05-08 07:28 | -8.46849 | 114.69865 | 8806 ft | 279 kts | 156° |
| 2026-05-08 07:28 | -8.48633 | 114.70644 | 8547 ft | 279 kts | 156° |
| 2026-05-08 07:28 | -8.50404 | 114.71419 | 8292 ft | 277 kts | 155° |
| 2026-05-08 07:29 | -8.52147 | 114.72179 | 8030 ft | 275 kts | 155° |
| 2026-05-08 07:29 | -8.53900 | 114.72944 | 7765 ft | 273 kts | 155° |
| 2026-05-08 07:29 | -8.55569 | 114.73833 | 7472 ft | 269 kts | 139° |
| 2026-05-08 07:29 | -8.56959 | 114.75099 | 7214 ft | 268 kts | 138° |
| 2026-05-08 07:30 | -8.58384 | 114.76297 | 6972 ft | 266 kts | 139° |
| 2026-05-08 07:30 | -8.59799 | 114.77497 | 6712 ft | 264 kts | 138° |
| 2026-05-08 07:30 | -8.61187 | 114.78704 | 6459 ft | 262 kts | 137° |
| 2026-05-08 07:30 | -8.62565 | 114.79904 | 6193 ft | 259 kts | 137° |
| 2026-05-08 07:31 | -8.63939 | 114.81097 | 5932 ft | 259 kts | 137° |
| 2026-05-08 07:31 | -8.65300 | 114.82272 | 5686 ft | 257 kts | 137° |
| 2026-05-08 07:31 | -8.66658 | 114.83450 | 5429 ft | 256 kts | 137° |
| 2026-05-08 07:31 | -8.68008 | 114.84619 | 5175 ft | 254 kts | 137° |
| 2026-05-08 07:32 | -8.69350 | 114.85782 | 4926 ft | 253 kts | 137° |
| 2026-05-08 07:32 | -8.70683 | 114.86939 | 4684 ft | 252 kts | 137° |
| 2026-05-08 07:32 | -8.72011 | 114.88091 | 4433 ft | 251 kts | 137° |
| 2026-05-08 07:32 | -8.73328 | 114.89229 | 4178 ft | 248 kts | 137° |
| 2026-05-08 07:33 | -8.74582 | 114.90398 | 3939 ft | 244 kts | 127° |
| 2026-05-08 07:33 | -8.75333 | 114.91883 | 3700 ft | 238 kts | 106° |
| 2026-05-08 07:33 | -8.75684 | 114.93484 | 3470 ft | 230 kts | 97° |
| 2026-05-08 07:33 | -8.75737 | 114.95095 | 3245 ft | 225 kts | 88° |
| 2026-05-08 07:34 | -8.75632 | 114.96694 | 3032 ft | 229 kts | 87° |
| 2026-05-08 07:34 | -8.75543 | 114.98264 | 2807 ft | 226 kts | 88° |
| 2026-05-08 07:34 | -8.75485 | 114.99853 | 2595 ft | 225 kts | 89° |
| 2026-05-08 07:34 | -8.75431 | 115.01422 | 2383 ft | 221 kts | 89° |
| 2026-05-08 07:35 | -8.75373 | 115.02986 | 2158 ft | 226 kts | 88° |
| 2026-05-08 07:35 | -8.75306 | 115.04555 | 1934 ft | 220 kts | 90° |
| 2026-05-08 07:35 | -8.75249 | 115.06044 | 1748 ft | 206 kts | 90° |
| 2026-05-08 07:35 | -8.75201 | 115.07432 | 1488 ft | 185 kts | 89° |
| 2026-05-08 07:36 | -8.75142 | 115.08629 | 1258 ft | 157 kts | 92° |
| 2026-05-08 07:36 | -8.75089 | 115.09659 | 978 ft | 143 kts | 93° |
| 2026-05-08 07:36 | -8.75047 | 115.10705 | 893 ft | 150 kts | 92° |
| 2026-05-08 07:36 | -8.75012 | 115.11725 | 731 ft | 142 kts | 92° |
| 2026-05-08 07:37 | -8.74979 | 115.12719 | 515 ft | 139 kts | 91° |
| 2026-05-08 07:37 | -8.74949 | 115.13691 | 308 ft | 138 kts | 89° |
| 2026-05-08 07:37 | -8.74911 | 115.14671 | 171 ft | 138 kts | 90° |
| 2026-05-08 07:37 | -8.74881 | 115.15637 | 36 ft | 136 kts | 91° |
| 2026-05-08 07:38 | -8.74850 | 115.16388 | 27 ft | 73 kts | 88° |
| 2026-05-08 07:38 | -8.74843 | 115.16740 | 29 ft | 41 kts | 88° |
| 2026-05-08 07:38 | -8.74831 | 115.17004 | 27 ft | 33 kts | 87° |
| 2026-05-08 07:38 | -8.74822 | 115.17217 | 26 ft | 26 kts | 88° |
| 2026-05-08 07:39 | -8.74783 | 115.17311 | 31 ft | 7 kts | 28° |
| 2026-05-08 07:39 | -8.74763 | 115.17313 | 30 ft | 3 kts | 359° |
| 2026-05-08 07:39 | -8.74731 | 115.17310 | 31 ft | 5 kts | 355° |
| 2026-05-08 07:39 | -8.74713 | 115.17309 | 26 ft | 0 kts | 356° |
| 2026-05-08 07:40 | -8.74709 | 115.17309 | 26 ft | 1 kts | 359° |
| 2026-05-08 07:41 | -8.74695 | 115.17308 | 26 ft | 2 kts | 353° |
| 2026-05-08 07:41 | -8.74679 | 115.17300 | 26 ft | 4 kts | 333° |
| 2026-05-08 07:41 | -8.74654 | 115.17257 | 26 ft | 10 kts | 280° |
| 2026-05-08 07:41 | -8.74654 | 115.17179 | 26 ft | 12 kts | 269° |
| 2026-05-08 07:42 | -8.74656 | 115.17089 | 29 ft | 14 kts | 267° |
| 2026-05-08 07:42 | -8.74660 | 115.16988 | 29 ft | 15 kts | 268° |
| 2026-05-08 07:42 | -8.74664 | 115.16880 | 30 ft | 15 kts | 267° |
| 2026-05-08 07:42 | -8.74669 | 115.16788 | 26 ft | 9 kts | 268° |
| 2026-05-08 07:43 | -8.74664 | 115.16752 | 26 ft | 1 kts | 295° |
| 2026-05-08 07:43 | -8.74656 | 115.16746 | 26 ft | 2 kts | 321° |
| 2026-05-08 07:43 | -8.74633 | 115.16739 | 26 ft | 7 kts | 345° |
| 2026-05-08 07:43 | -8.74586 | 115.16735 | 26 ft | 7 kts | 356° |
| 2026-05-08 07:44 | -8.74558 | 115.16733 | 25 ft | 2 kts | 356° |
| 2026-05-08 07:44 | -8.74547 | 115.16733 | 26 ft | 2 kts | 357° |
| 2026-05-08 07:44 | -8.74541 | 115.16732 | 26 ft | 1 kts | 358° |
| 2026-05-08 07:44 | -8.74539 | 115.16732 | 26 ft | 0 kts | 358° |